首页
METAR-TAF:

METAR-TAF

机场 :

利兹, 英格兰

纬度: 53-52N, 经度: 001-39W, 海拔: 208米

当前天气观测

该预报发布于43分钟前的05:50 UTC
风速9节,风向西转西南
温度 6°C
湿度 87%
气压 1015 hPa
能见度10公里或以上
多云层高于900英尺

METAR: EGNM 250550Z 24009KT 9999 BKN009 06/04 Q1015

时间: 06:33 (06:33 UTC)

预报

该预报发布于1小时和28分钟前的05:05 UTC
预报有效从25日的 06点(UTC)到 26日的 06点(UTC)
风速7节,风向南转西南
能见度10公里或以上
散云层高于800英尺
多云层高于1600英尺
短暂存在
从 25日的 06点(UTC)到 25日的 12点(UTC)
多云层高于800英尺
短暂存在
从 25日的 18点(UTC)到 26日的 06点(UTC)
能見度: 3000
多云层高于800英尺
小毛毛雨, 轻雾
几率 30% :
短暂存在
从 25日的 19点(UTC)到 26日的 03点(UTC)
能見度: 1200
多云层高于300英尺
毛毛雨

TAF: EGNM 250505Z 2506/2606 21007KT 9999 SCT008 BKN016 TEMPO 2506/2512 BKN008 TEMPO 2518/2606 3000 -DZ BR BKN008 PROB30 TEMPO 2519/2603 1200 DZ BKN003

超过4000个机场的气象观测和天气预报(METAR&TAF报告)。

可查询的气象台以黄色和红色小点在地图上表示。

将鼠标移到小点上方,可查看气象台名称。

然后点击查看天气观测和预报。

如需切换地图:点击带黑十字的绿色按钮放大地图;点击带横线的绿色按钮缩小地图;或者点击绿色箭头查看邻近地区的地图。


METAR-TAF: